Time;durP1;ratioP1;P1;durP2;ratioP2;P2;SDS_P1;SDS_P2;PMS_P1;PMS_P2;Temp;Humidity;BMP_temperature;BMP_pressure;BME280_temperature;BME280_humidity;BME280_pressure;Samples;Min_cycle;Max_cycle;Signal;HPM_P1;HPM_P2
2023/01/04 00:01:14;;;;;;;20.13;8.68;;;;;;;13.56;99.15;95655.53;5018541;28;20427;-81
2023/01/04 00:03:40;;;;;;;19.70;9.65;;;;;;;13.66;95.08;95659.25;5018658;28;20036;-81
2023/01/04 00:06:08;;;;;;;17.45;8.00;;;;;;;13.68;95.86;95647.41;5018603;28;20494;-81
2023/01/04 00:08:33;;;;;;;16.55;8.82;;;;;;;13.43;98.14;95648.03;5002366;28;20025;-81
2023/01/04 00:11:04;;;;;;;25.00;9.43;;;;;;;12.98;100.00;95645.63;5018541;28;20033;-81
2023/01/04 00:13:30;;;;;;;20.70;9.93;;;;;;;13.00;100.00;95640.09;5018558;28;20025;-81
2023/01/04 00:15:56;;;;;;;22.98;9.35;;;;;;;12.83;100.00;95634.94;5021879;28;20056;-81
2023/01/04 00:18:22;;;;;;;21.88;9.95;;;;;;;12.68;100.00;95636.38;5022079;28;20052;-81
2023/01/04 00:20:47;;;;;;;22.98;9.85;;;;;;;12.55;100.00;95639.41;5022137;28;20029;-81
2023/01/04 00:23:13;;;;;;;21.73;9.70;;;;;;;13.02;100.00;95635.34;5022064;28;20064;-81
2023/01/04 00:25:38;;;;;;;24.35;10.20;;;;;;;13.01;100.00;95644.28;5005823;28;20063;-81
2023/01/04 00:28:04;;;;;;;20.67;8.95;;;;;;;13.14;100.00;95646.50;5039506;28;20029;-81
2023/01/04 00:30:29;;;;;;;16.92;8.88;;;;;;;13.06;100.00;95647.00;5039362;28;20062;-81
2023/01/04 00:32:59;;;;;;;20.30;9.23;;;;;;;13.29;100.00;95647.66;5005449;28;20041;-81
2023/01/04 00:35:24;;;;;;;22.63;9.82;;;;;;;13.12;99.70;95645.97;5022115;28;20036;-81
2023/01/04 00:37:50;;;;;;;22.15;10.02;;;;;;;13.17;100.00;95652.31;5021771;28;20025;-81
2023/01/04 00:40:15;;;;;;;22.88;10.75;;;;;;;12.91;100.00;95645.00;5021704;28;20033;-81
2023/01/04 00:42:41;;;;;;;24.42;9.85;;;;;;;12.62;100.00;95649.72;5039265;28;20126;-81
2023/01/04 00:45:07;;;;;;;28.10;10.73;;;;;;;12.97;100.00;95648.47;5021605;28;20029;-82
2023/01/04 00:47:32;;;;;;;23.77;10.23;;;;;;;13.15;100.00;95650.72;5021492;28;20083;-81
2023/01/04 00:49:58;;;;;;;18.80;9.68;;;;;;;13.20;99.22;95649.97;5021626;28;20430;-81
2023/01/04 00:52:23;;;;;;;16.23;8.68;;;;;;;13.17;99.73;95652.31;5039134;28;20079;-81
2023/01/04 00:54:55;;;;;;;20.42;8.88;;;;;;;13.52;98.00;95654.44;5051528;28;20423;-81
2023/01/04 00:57:20;;;;;;;20.23;8.40;;;;;;;13.34;96.98;95650.34;5041395;28;20044;-81
2023/01/04 00:59:46;;;;;;;19.45;8.02;;;;;;;13.33;96.15;95659.25;5058877;28;20103;-81
2023/01/04 01:02:11;;;;;;;23.83;7.95;;;;;;;13.27;96.48;95647.94;5024563;28;20037;-81
2023/01/04 01:04:37;;;;;;;16.63;7.18;;;;;;;13.28;96.32;95648.72;5041105;28;20060;-82
2023/01/04 01:07:02;;;;;;;16.08;7.43;;;;;;;13.25;96.74;95643.97;5058747;28;20029;-82
2023/01/04 01:09:27;;;;;;;18.38;7.88;;;;;;;13.02;99.40;95640.63;5041018;28;20031;-81
2023/01/04 01:11:53;;;;;;;15.55;7.47;;;;;;;12.86;100.00;95645.75;5040936;28;20086;-81
2023/01/04 01:14:24;;;;;;;14.27;7.30;;;;;;;12.95;100.00;95651.34;5058946;28;20106;-82
2023/01/04 01:16:49;;;;;;;23.45;8.07;;;;;;;12.56;100.00;95648.91;5041052;28;20053;-82
2023/01/04 01:19:15;;;;;;;12.18;7.30;;;;;;;12.67;100.00;95644.53;5040822;28;20067;-82
2023/01/04 01:21:40;;;;;;;15.32;7.30;;;;;;;12.63;100.00;95652.13;5058582;28;20033;-81
2023/01/04 01:24:09;;;;;;;15.50;7.07;;;;;;;12.83;100.00;95651.53;5040710;28;20040;-81
2023/01/04 01:26:34;;;;;;;19.02;8.65;;;;;;;12.63;100.00;95652.13;5039861;28;20029;-81
2023/01/04 01:29:00;;;;;;;19.33;8.55;;;;;;;12.40;100.00;95646.09;5040624;28;20323;-82
2023/01/04 01:31:27;;;;;;;23.13;9.02;;;;;;;12.41;100.00;95642.47;5040519;28;20033;-82
2023/01/04 01:33:54;;;;;;;17.40;7.72;;;;;;;12.60;100.00;95639.47;5040560;28;20159;-81
2023/01/04 01:36:22;;;;;;;17.05;7.30;;;;;;;12.40;100.00;95638.22;5040437;28;20036;-81
2023/01/04 01:38:48;;;;;;;21.63;8.20;;;;;;;12.66;100.00;95646.34;5024128;28;20037;-82
2023/01/04 01:41:28;;;;;;;16.77;8.50;;;;;;;12.95;100.00;95642.69;5058108;28;20114;-81
2023/01/04 01:44:40;;;;;;;15.48;8.38;;;;;;;12.95;100.00;95645.31;5022492;28;20032;-81
2023/01/04 01:47:14;;;;;;;17.45;8.25;;;;;;;12.73;100.00;95636.44;5018195;28;20036;-82
2023/01/04 01:49:41;;;;;;;19.60;7.07;;;;;;;12.34;100.00;95639.22;4995897;28;20439;-81
2023/01/04 01:52:10;;;;;;;21.88;8.43;;;;;;;12.01;100.00;95640.94;5011723;28;20037;-81
2023/01/04 01:54:43;;;;;;;17.83;7.35;;;;;;;12.35;100.00;95640.81;5004054;28;20088;-82
2023/01/04 01:57:13;;;;;;;18.38;8.45;;;;;;;12.37;100.00;95637.94;5020517;28;20095;-82
2023/01/04 01:59:40;;;;;;;23.27;8.63;;;;;;;12.30;100.00;95646.78;5020086;28;20029;-81
2023/01/04 02:02:05;;;;;;;17.00;8.48;;;;;;;12.05;100.00;95655.19;5004044;28;20033;-81
2023/01/04 02:04:31;;;;;;;23.77;8.27;;;;;;;12.04;100.00;95652.78;5037819;28;20431;-82
2023/01/04 02:06:57;;;;;;;16.88;7.90;;;;;;;12.04;100.00;95650.16;5020036;28;20397;-81
2023/01/04 02:09:22;;;;;;;25.08;7.72;;;;;;;11.76;100.00;95646.63;5020009;28;20354;-81
2023/01/04 02:11:48;;;;;;;24.10;10.07;;;;;;;11.38;100.00;95649.81;5004715;28;20030;-81
2023/01/04 02:14:27;;;;;;;18.48;9.00;;;;;;;11.86;100.00;95658.06;5000289;28;20435;-82
2023/01/04 02:16:56;;;;;;;20.08;10.02;;;;;;;11.94;100.00;95663.94;5002016;28;20084;-81
2023/01/04 02:19:55;;;;;;;26.27;10.90;;;;;;;11.51;100.00;95668.88;5017637;28;20034;-81
2023/01/04 02:22:42;;;;;;;16.10;7.60;;;;;;;11.03;100.00;95661.31;5017763;28;20076;-82
2023/01/04 02:25:13;;;;;;;18.73;9.15;;;;;;;11.40;100.00;95665.31;5000263;28;20180;-82
2023/01/04 02:27:42;;;;;;;28.83;11.45;;;;;;;11.59;100.00;95660.59;5000196;28;20041;-82
2023/01/04 02:30:32;;;;;;;23.75;12.02;;;;;;;12.05;100.00;95657.00;5017467;28;20056;-82
2023/01/04 02:33:16;;;;;;;21.85;10.57;;;;;;;12.21;100.00;95658.78;5000168;28;20092;-81
2023/01/04 02:35:47;;;;;;;23.60;11.18;;;;;;;12.23;100.00;95656.72;5000150;28;20079;-81
2023/01/04 02:38:12;;;;;;;18.67;9.32;;;;;;;12.14;100.00;95656.34;5000030;28;20044;-81
2023/01/04 02:40:58;;;;;;;24.50;11.02;;;;;;;12.22;100.00;95660.38;5017401;28;20033;-81
2023/01/04 02:46:21;;;;;;;24.48;11.35;;;;;;;12.35;100.00;95655.78;5017283;28;20045;-81
2023/01/04 02:51:37;;;;;;;25.55;11.02;;;;;;;11.96;100.00;95649.53;5002329;28;20080;-81
2023/01/04 02:54:09;;;;;;;25.17;11.68;;;;;;;11.28;100.00;95649.66;4999681;28;20080;-81
2023/01/04 02:56:44;;;;;;;23.85;11.07;;;;;;;11.29;100.00;95648.63;4983509;28;20124;-82
2023/01/04 02:59:30;;;;;;;24.08;10.75;;;;;;;11.82;100.00;95650.94;5017099;28;20065;-82
2023/01/04 03:08:35;;;;;;;29.60;10.88;;;;;;;11.58;100.00;95641.44;5002112;28;20084;-82
2023/01/04 03:11:05;;;;;;;27.80;13.20;;;;;;;11.71;100.00;95635.03;4999794;28;20431;-81
2023/01/04 03:13:38;;;;;;;29.90;14.43;;;;;;;11.75;100.00;95635.34;4999490;28;20048;-81
2023/01/04 03:16:05;;;;;;;;;;;;;;;11.73;100.00;95645.31;4983584;28;20030;-82
2023/01/04 03:18:35;;;;;;;31.58;14.18;;;;;;;11.79;100.00;95640.91;5016839;28;19914;-82
2023/01/04 03:21:02;;;;;;;33.03;14.50;;;;;;;11.60;100.00;95654.31;4983274;28;20034;-81
2023/01/04 03:35:54;;;;;;;29.67;11.77;;;;;;;12.79;100.00;95633.84;4923898;29;20496;-81
2023/01/04 03:50:18;;;;;;;29.35;12.45;;;;;;;12.37;100.00;95645.81;4944754;29;20046;-81
2023/01/04 03:52:45;;;;;;;23.98;11.18;;;;;;;11.49;100.00;95648.13;4976095;28;20038;-81
2023/01/04 03:55:11;;;;;;;27.40;11.82;;;;;;;12.26;100.00;95653.59;4986858;28;20442;-81
2023/01/04 03:57:36;;;;;;;29.90;12.93;;;;;;;12.47;100.00;95650.38;5002790;28;20113;-81
2023/01/04 04:00:09;;;;;;;23.90;11.25;;;;;;;12.42;100.00;95645.88;4986759;28;20034;-81
2023/01/04 04:02:34;;;;;;;25.90;11.55;;;;;;;12.52;100.00;95645.16;5002770;28;20135;-81
2023/01/04 04:10:28;;;;;;;22.52;10.95;;;;;;;12.80;100.00;95636.25;5016087;28;20036;-81
2023/01/04 04:12:54;;;;;;;24.90;10.43;;;;;;;12.62;100.00;95636.59;5021375;28;20034;-81
2023/01/04 04:15:19;;;;;;;23.75;11.13;;;;;;;12.23;100.00;95627.81;5006437;28;20025;-81
2023/01/04 04:17:44;;;;;;;29.10;12.32;;;;;;;12.07;100.00;95631.31;5005911;28;20037;-81
2023/01/04 04:20:11;;;;;;;36.83;13.98;;;;;;;11.97;100.00;95632.72;5005903;28;20095;-81
2023/01/04 04:22:37;;;;;;;24.35;12.80;;;;;;;11.66;100.00;95632.34;5022160;28;20386;-81
2023/01/04 04:25:03;;;;;;;24.50;12.65;;;;;;;11.79;100.00;95633.81;5005394;28;20033;-81
2023/01/04 04:27:29;;;;;;;29.85;13.10;;;;;;;11.95;100.00;95629.56;5021780;28;20069;-81
2023/01/04 04:29:54;;;;;;;24.58;11.75;;;;;;;11.55;100.00;95630.63;5021812;28;20033;-81
2023/01/04 04:32:19;;;;;;;23.08;11.73;;;;;;;11.91;100.00;95632.91;5005757;28;20029;-81
2023/01/04 04:34:45;;;;;;;25.13;12.32;;;;;;;12.05;100.00;95639.41;5005741;28;20063;-81
2023/01/04 04:37:10;;;;;;;27.27;12.38;;;;;;;11.58;100.00;95641.44;5005177;28;20048;-81
2023/01/04 04:39:36;;;;;;;33.25;14.02;;;;;;;11.68;100.00;95645.22;5005833;28;20033;-81
2023/01/04 04:42:01;;;;;;;24.23;12.32;;;;;;;11.98;100.00;95641.41;5005585;28;20036;-81
2023/01/04 04:44:26;;;;;;;29.83;13.13;;;;;;;11.98;100.00;95647.44;5005543;28;20036;-81
2023/01/04 04:46:52;;;;;;;24.02;11.35;;;;;;;11.64;100.00;95644.13;5004579;28;20124;-81
2023/01/04 04:49:17;;;;;;;27.88;12.13;;;;;;;11.62;100.00;95643.56;5005399;28;20064;-81
2023/01/04 04:51:44;;;;;;;27.70;12.32;;;;;;;12.34;100.00;95641.03;5021566;28;20029;-80
2023/01/04 04:54:11;;;;;;;32.83;14.63;;;;;;;12.14;100.00;95648.47;5018949;28;20079;-81
2023/01/04 04:56:37;;;;;;;25.38;13.88;;;;;;;12.14;100.00;95639.78;5001702;28;20029;-81
2023/01/04 04:59:04;;;;;;;28.25;13.75;;;;;;;11.80;100.00;95640.66;5001736;28;20100;-81
2023/01/04 05:01:29;;;;;;;27.00;13.38;;;;;;;11.80;100.00;95638.03;4984284;28;20059;-81
2023/01/04 05:03:55;;;;;;;27.92;13.43;;;;;;;11.99;100.00;95638.53;5001792;28;20087;-81
2023/01/04 05:06:20;;;;;;;39.50;15.80;;;;;;;11.85;100.00;95634.69;5001557;28;20042;-81
2023/01/04 05:08:46;;;;;;;25.85;14.45;;;;;;;11.98;100.00;95638.78;5001495;28;20037;-81
2023/01/04 05:11:13;;;;;;;29.45;12.93;;;;;;;12.05;100.00;95638.59;4985584;28;20030;-81
2023/01/04 05:13:41;;;;;;;30.35;12.70;;;;;;;11.50;100.00;95639.22;5001601;28;20030;-81
2023/01/04 05:16:11;;;;;;;26.25;13.27;;;;;;;11.16;100.00;95649.75;5001344;28;20445;-81
2023/01/04 05:18:36;;;;;;;33.72;14.23;;;;;;;11.07;100.00;95648.53;4985520;28;20040;-81
2023/01/04 05:21:02;;;;;;;32.88;14.00;;;;;;;11.34;100.00;95648.72;5001607;28;20116;-81
2023/01/04 05:23:27;;;;;;;27.88;13.65;;;;;;;10.96;100.00;95645.75;4985284;28;20030;-81
2023/01/04 05:25:56;;;;;;;30.02;14.30;;;;;;;11.23;100.00;95650.38;4985154;28;20037;-81
2023/01/04 05:28:22;;;;;;;25.77;12.50;;;;;;;11.31;100.00;95641.28;4985264;28;20033;-81
2023/01/04 05:30:52;;;;;;;30.98;13.30;;;;;;;11.09;100.00;95644.66;5018590;28;20087;-81
2023/01/04 05:33:28;;;;;;;28.95;12.25;;;;;;;11.32;100.00;95648.13;5001314;28;20344;-81
2023/01/04 05:35:56;;;;;;;23.38;12.45;;;;;;;11.27;100.00;95646.25;5000993;28;20352;-81
2023/01/04 05:38:21;;;;;;;31.00;13.95;;;;;;;11.14;100.00;95641.31;4984894;28;20030;-81
2023/01/04 05:40:48;;;;;;;29.85;13.57;;;;;;;11.09;100.00;95638.59;4985013;28;20025;-81
2023/01/04 05:43:14;;;;;;;24.40;12.43;;;;;;;11.28;100.00;95645.22;4984874;28;20029;-81
2023/01/04 05:45:41;;;;;;;32.25;14.13;;;;;;;10.83;100.00;95636.38;5001091;28;20033;-81
2023/01/04 05:48:10;;;;;;;28.25;14.02;;;;;;;10.84;100.00;95637.97;5000977;28;20030;-81
2023/01/04 05:50:35;;;;;;;26.35;14.60;;;;;;;10.93;100.00;95645.44;4984745;28;20128;-81
2023/01/04 05:53:00;;;;;;;28.05;14.30;;;;;;;11.19;100.00;95649.25;5000756;28;20454;-81
2023/01/04 05:55:26;;;;;;;29.45;15.00;;;;;;;11.28;100.00;95647.84;5018147;28;20026;-83
2023/01/04 05:57:52;;;;;;;34.10;14.30;;;;;;;11.20;100.00;95650.84;4984289;28;20057;-81
2023/01/04 06:00:18;;;;;;;30.65;11.95;;;;;;;11.28;100.00;95649.66;5000632;28;20451;-81
2023/01/04 06:02:43;;;;;;;16.92;9.15;;;;;;;11.02;100.00;95654.50;5000579;28;20120;-81
2023/01/04 06:05:10;;;;;;;15.35;7.18;;;;;;;11.24;100.00;95659.81;4984606;28;20347;-81
2023/01/04 06:07:36;;;;;;;13.75;6.72;;;;;;;10.59;100.00;95660.06;5000330;28;20193;-81
2023/01/04 06:10:02;;;;;;;19.55;7.28;;;;;;;11.02;100.00;95660.56;5000451;28;20343;-81
2023/01/04 06:12:27;;;;;;;13.50;6.60;;;;;;;11.28;100.00;95668.81;5017910;28;20029;-81
2023/01/04 06:14:53;;;;;;;16.58;7.45;;;;;;;11.29;100.00;95669.59;5039744;28;20052;-81
2023/01/04 06:17:18;;;;;;;14.00;6.45;;;;;;;10.99;100.00;95670.72;5023416;28;20029;-81
2023/01/04 06:19:44;;;;;;;18.65;8.02;;;;;;;10.94;100.00;95675.88;5023295;28;20039;-81
2023/01/04 06:22:09;;;;;;;15.20;7.20;;;;;;;10.52;100.00;95677.78;5039604;28;20033;-81
2023/01/04 06:24:34;;;;;;;24.35;7.38;;;;;;;10.67;100.00;95672.00;5039688;28;20028;-81
2023/01/04 06:27:00;;;;;;;19.05;8.23;;;;;;;10.81;100.00;95667.28;5039427;28;20029;-82
2023/01/04 06:29:26;;;;;;;19.40;8.00;;;;;;;10.90;100.00;95670.31;5039320;28;20025;-82
2023/01/04 06:31:51;;;;;;;17.95;9.05;;;;;;;10.86;100.00;95674.44;5039553;28;20064;-81
2023/01/04 06:34:17;;;;;;;20.98;8.63;;;;;;;10.85;100.00;95681.50;5023095;28;20025;-81
2023/01/04 06:36:42;;;;;;;20.17;9.38;;;;;;;10.77;100.00;95683.72;5023005;28;20513;-82
2023/01/04 06:39:08;;;;;;;22.13;9.40;;;;;;;10.93;100.00;95676.91;5023046;28;20500;-81
2023/01/04 06:41:34;;;;;;;20.80;8.70;;;;;;;10.97;100.00;95672.78;5023070;28;20401;-82
2023/01/04 06:43:59;;;;;;;16.80;8.05;;;;;;;10.63;100.00;95681.38;5005243;28;20079;-82
2023/01/04 06:46:25;;;;;;;15.73;8.68;;;;;;;10.65;100.00;95681.16;4999581;28;20029;-81
2023/01/04 06:48:52;;;;;;;20.05;8.27;;;;;;;10.45;100.00;95680.53;4999822;28;20411;-82
2023/01/04 06:51:18;;;;;;;19.20;8.55;;;;;;;10.74;100.00;95684.97;4999708;28;20080;-81
2023/01/04 06:53:43;;;;;;;16.63;8.32;;;;;;;10.83;100.00;95688.00;4999791;28;20030;-82
2023/01/04 06:56:09;;;;;;;18.02;8.82;;;;;;;10.89;100.00;95687.06;4999575;28;20029;-81
2023/01/04 06:58:35;;;;;;;14.63;8.15;;;;;;;10.96;100.00;95686.94;4983593;28;20510;-81
2023/01/04 07:01:00;;;;;;;17.92;8.93;;;;;;;10.83;100.00;95688.00;4999555;28;20056;-81
2023/01/04 07:03:26;;;;;;;25.40;9.38;;;;;;;10.91;100.00;95689.47;4999475;28;20033;-81
2023/01/04 07:05:52;;;;;;;14.38;7.95;;;;;;;10.94;100.00;95681.91;4999397;28;20332;-81
2023/01/04 07:08:18;;;;;;;19.67;8.98;;;;;;;10.88;100.00;95686.25;4999667;28;20320;-81
2023/01/04 07:10:43;;;;;;;21.17;8.32;;;;;;;10.76;100.00;95690.78;4999392;28;20036;-82
2023/01/04 07:13:09;;;;;;;13.43;7.35;;;;;;;10.82;100.00;95689.84;5016968;28;20076;-81
2023/01/04 07:15:35;;;;;;;14.98;7.70;;;;;;;10.58;100.00;95694.41;4999330;28;20355;-81
2023/01/04 07:18:00;;;;;;;17.52;8.98;;;;;;;10.44;100.00;95699.91;5035481;28;20029;-81
2023/01/04 07:20:26;;;;;;;22.42;10.02;;;;;;;10.42;100.00;95698.53;5036516;28;20033;-82
2023/01/04 07:22:52;;;;;;;24.38;9.75;;;;;;;10.69;100.00;95698.81;5018909;28;20083;-81
2023/01/04 07:25:17;;;;;;;19.08;9.23;;;;;;;11.02;100.00;95701.69;5035914;28;20435;-84
2023/01/04 07:27:43;;;;;;;18.33;8.00;;;;;;;11.13;100.00;95697.44;5019376;28;20361;-84
2023/01/04 07:30:09;;;;;;;18.00;7.53;;;;;;;11.34;100.00;95698.56;5038568;28;20115;-83
2023/01/04 07:32:35;;;;;;;12.98;6.88;;;;;;;11.31;100.00;95693.78;5038654;28;20029;-84
2023/01/04 07:35:00;;;;;;;16.30;8.32;;;;;;;10.94;100.00;95694.25;5038600;28;20036;-84
2023/01/04 07:37:26;;;;;;;15.38;8.25;;;;;;;11.13;100.00;95689.56;5038534;28;20036;-84
2023/01/04 07:39:51;;;;;;;21.88;8.80;;;;;;;11.24;100.00;95693.16;5056290;28;20033;-84
2023/01/04 07:42:18;;;;;;;18.15;8.48;;;;;;;11.35;100.00;95694.91;5056325;28;20025;-84
2023/01/04 07:44:44;;;;;;;17.13;8.48;;;;;;;11.66;100.00;95699.78;5038709;28;20025;-84
2023/01/04 07:47:10;;;;;;;22.13;7.38;;;;;;;11.86;100.00;95701.91;5038392;28;20346;-84
2023/01/04 07:49:35;;;;;;;14.95;6.47;;;;;;;11.57;100.00;95702.03;5038436;28;20025;-84
2023/01/04 07:52:01;;;;;;;15.55;7.57;;;;;;;12.01;100.00;95702.16;5022156;28;20029;-83
2023/01/04 07:54:27;;;;;;;16.50;6.90;;;;;;;11.71;100.00;95713.78;5038441;28;20025;-83
2023/01/04 07:56:52;;;;;;;16.45;6.95;;;;;;;11.99;100.00;95703.41;5030506;28;20443;-84
2023/01/04 07:59:19;;;;;;;16.70;7.32;;;;;;;12.07;100.00;95713.50;5002387;28;20033;-83
2023/01/04 08:01:45;;;;;;;13.93;6.90;;;;;;;12.13;100.00;95709.13;5018721;28;20213;-84
2023/01/04 08:04:15;;;;;;;14.30;6.03;;;;;;;12.26;100.00;95713.22;5018592;28;20030;-84
2023/01/04 08:06:45;;;;;;;18.67;6.68;;;;;;;11.97;100.00;95714.16;5002604;28;20025;-84
2023/01/04 08:09:11;;;;;;;15.45;5.78;;;;;;;11.88;100.00;95716.41;5018608;28;20017;-83
2023/01/04 08:11:37;;;;;;;11.82;6.47;;;;;;;12.54;100.00;95717.50;5018576;28;20052;-84
2023/01/04 08:14:02;;;;;;;11.40;6.35;;;;;;;12.83;100.00;95717.28;5018467;28;20092;-84
2023/01/04 08:16:32;;;;;;;16.30;6.68;;;;;;;13.10;100.00;95719.09;4998655;28;20029;-83
2023/01/04 08:19:06;;;;;;;14.70;6.75;;;;;;;12.95;100.00;95714.47;4998740;28;20065;-85
2023/01/04 08:21:33;;;;;;;13.82;6.60;;;;;;;13.00;100.00;95719.81;4982730;28;20076;-85
2023/01/04 08:23:59;;;;;;;14.05;6.72;;;;;;;13.02;100.00;95722.19;4998867;28;20060;-85
2023/01/04 08:26:24;;;;;;;15.68;6.97;;;;;;;12.86;100.00;95726.50;4998734;28;20466;-83
2023/01/04 08:28:50;;;;;;;18.00;6.85;;;;;;;13.07;100.00;95729.31;4998514;28;20128;-84
2023/01/04 08:31:19;;;;;;;14.05;6.75;;;;;;;13.39;98.48;95724.09;4998625;28;20097;-83
2023/01/04 08:33:45;;;;;;;14.80;6.70;;;;;;;13.15;100.00;95734.94;4982670;28;20049;-83
2023/01/04 08:36:18;;;;;;;12.77;7.10;;;;;;;13.05;100.00;95734.03;5000791;28;20084;-84
2023/01/04 08:38:44;;;;;;;13.77;6.90;;;;;;;13.23;96.39;95733.69;5019579;28;20087;-83
2023/01/04 08:41:10;;;;;;;13.30;6.40;;;;;;;13.23;100.00;95731.03;5002045;28;20269;-84
2023/01/04 08:43:35;;;;;;;14.85;7.28;;;;;;;13.59;96.84;95727.94;5002123;28;20171;-83
2023/01/04 08:46:03;;;;;;;13.98;7.40;;;;;;;13.66;94.75;95732.97;5019450;28;20033;-83
2023/01/04 08:48:29;;;;;;;12.95;6.65;;;;;;;13.88;94.91;95735.50;5002328;28;20030;-83
2023/01/04 08:50:58;;;;;;;14.43;6.85;;;;;;;14.03;95.42;95729.53;4985654;28;20126;-83
2023/01/04 08:53:23;;;;;;;10.95;6.65;;;;;;;13.78;97.25;95735.47;5001853;28;20126;-83
2023/01/04 08:55:50;;;;;;;14.20;6.82;;;;;;;13.77;100.00;95733.84;5001802;28;20436;-83
2023/01/04 08:58:16;;;;;;;10.82;6.10;;;;;;;13.86;97.24;95740.22;5001664;28;20132;-83
2023/01/04 09:00:41;;;;;;;10.05;6.07;;;;;;;13.70;93.45;95724.34;5019200;28;20113;-83
2023/01/04 09:03:07;;;;;;;14.45;6.82;;;;;;;13.47;99.99;95728.13;4985693;28;20030;-83
2023/01/04 09:05:32;;;;;;;13.77;6.28;;;;;;;13.54;97.45;95726.06;4985325;28;20087;-83
2023/01/04 09:08:01;;;;;;;20.27;6.75;;;;;;;13.61;100.00;95733.75;5001730;28;20426;-83
2023/01/04 09:10:26;;;;;;;13.93;6.75;;;;;;;13.65;100.00;95729.56;4985255;28;20120;-83
2023/01/04 09:12:52;;;;;;;11.05;6.75;;;;;;;13.88;97.39;95734.72;5001562;28;20057;-84
2023/01/04 09:15:18;;;;;;;20.20;7.55;;;;;;;13.73;100.00;95733.56;5001528;28;20117;-83
2023/01/04 09:17:43;;;;;;;17.35;7.38;;;;;;;13.81;100.00;95734.94;4985396;28;20036;-84
2023/01/04 09:20:09;;;;;;;10.73;6.15;;;;;;;13.83;98.22;95738.88;5001444;28;20395;-83
2023/01/04 09:22:34;;;;;;;18.95;6.40;;;;;;;13.59;97.69;95737.69;5001407;28;20029;-83
2023/01/04 09:25:00;;;;;;;10.68;6.18;;;;;;;13.97;98.93;95733.19;5001314;28;20084;-83
2023/01/04 09:27:25;;;;;;;15.55;6.38;;;;;;;13.92;96.42;95731.34;5001233;28;20026;-84
2023/01/04 09:29:51;;;;;;;13.38;5.68;;;;;;;13.91;92.25;95724.44;5001217;28;20034;-83
2023/01/04 09:32:16;;;;;;;16.45;5.40;;;;;;;14.35;92.25;95728.63;5018696;28;20030;-83
2023/01/04 09:34:42;;;;;;;12.85;5.03;;;;;;;14.43;89.49;95735.25;5001046;28;20435;-83
2023/01/04 09:37:08;;;;;;;12.05;5.47;;;;;;;14.18;93.64;95744.63;4984932;28;20423;-83
2023/01/04 09:39:33;;;;;;;9.68;5.05;;;;;;;14.19;93.04;95740.94;5018476;28;20041;-84
2023/01/04 09:42:03;;;;;;;13.15;5.20;;;;;;;14.53;89.84;95731.84;4985515;28;20034;-84
2023/01/04 09:44:43;;;;;;;13.68;5.00;;;;;;;14.72;85.28;95731.44;5024312;28;20131;-86
2023/01/04 09:47:14;;;;;;;12.43;4.65;;;;;;;14.66;85.31;95726.09;5039304;28;20029;-86
2023/01/04 09:50:05;;;;;;;12.55;5.18;;;;;;;14.90;84.87;95736.22;5023978;28;20025;-85
2023/01/04 09:52:49;;;;;;;7.70;4.35;;;;;;;15.00;81.88;95727.53;5025147;28;20503;-86
2023/01/04 09:55:22;;;;;;;10.95;5.80;;;;;;;14.88;87.32;95730.41;5040337;28;20032;-86
2023/01/04 09:57:56;;;;;;;8.40;4.80;;;;;;;15.02;83.11;95717.50;5033934;28;20024;-86
2023/01/04 10:00:29;;;;;;;8.43;4.80;;;;;;;15.25;83.11;95718.84;4998756;28;20370;-86
2023/01/04 10:03:11;;;;;;;7.93;4.97;;;;;;;15.26;83.23;95709.84;5020856;28;20053;-87
2023/01/04 10:05:36;;;;;;;12.13;5.40;;;;;;;15.02;85.60;95709.59;5020315;28;20135;-87
2023/01/04 10:08:05;;;;;;;12.00;5.20;;;;;;;15.25;83.11;95710.13;5019905;28;20792;-87
2023/01/04 10:10:57;;;;;;;9.60;5.03;;;;;;;15.36;81.21;95703.00;5020706;28;20132;-87
2023/01/04 10:13:41;;;;;;;10.05;4.80;;;;;;;15.44;81.10;95705.13;5037703;28;20033;-86
2023/01/04 10:16:23;;;;;;;9.35;4.75;;;;;;;15.56;81.63;95707.50;5019518;28;20068;-86
2023/01/04 10:19:20;;;;;;;10.27;5.15;;;;;;;15.42;79.56;95709.84;5019826;28;20037;-87
2023/01/04 10:21:50;;;;;;;10.13;4.60;;;;;;;15.14;81.39;95704.06;5037514;28;20029;-87
2023/01/04 10:24:42;;;;;;;13.20;5.20;;;;;;;15.49;77.94;95696.38;5019852;28;20124;-87
2023/01/04 10:27:35;;;;;;;9.85;5.18;;;;;;;15.79;76.69;95700.06;4982983;28;20041;-87
2023/01/04 10:30:20;;;;;;;8.37;4.60;;;;;;;15.86;77.00;95700.56;5037636;28;20029;-87
2023/01/04 10:32:50;;;;;;;10.23;4.55;;;;;;;15.56;79.33;95696.91;5003846;28;20037;-87
2023/01/04 10:35:20;;;;;;;9.40;4.93;;;;;;;15.59;75.69;95690.31;5019974;28;20037;-85
2023/01/04 10:37:49;;;;;;;12.40;4.85;;;;;;;15.79;77.53;95687.63;5003133;28;20088;-86
2023/01/04 10:40:16;;;;;;;10.85;5.25;;;;;;;15.84;79.75;95689.47;5003340;28;20434;-89
2023/01/04 10:42:57;;;;;;;12.40;5.35;;;;;;;15.73;79.22;95690.56;5019960;28;20079;-83
2023/01/04 10:45:49;;;;;;;11.57;6.07;;;;;;;15.99;78.77;95687.88;5019972;28;20029;-86
2023/01/04 10:48:23;;;;;;;13.57;6.18;;;;;;;16.01;78.42;95686.56;5003692;28;20132;-86
2023/01/04 10:51:02;;;;;;;14.48;6.03;;;;;;;16.09;77.29;95680.72;5037129;28;20029;-85
2023/01/04 10:53:31;;;;;;;18.45;7.68;;;;;;;16.08;76.81;95681.78;5019448;28;20037;-85
2023/01/04 10:56:42;;;;;;;17.67;7.88;;;;;;;15.92;78.10;95680.25;5019686;28;20033;-85
2023/01/04 10:59:36;;;;;;;16.33;7.32;;;;;;;15.86;80.95;95678.66;5014302;28;20041;-85
2023/01/04 11:02:22;;;;;;;18.83;9.10;;;;;;;16.00;80.67;95678.91;5019383;28;20040;-85
2023/01/04 11:05:11;;;;;;;19.65;9.82;;;;;;;16.22;80.99;95670.63;5032470;28;20032;-84
2023/01/04 11:07:41;;;;;;;24.60;11.27;;;;;;;15.99;81.86;95685.25;4983405;28;20065;-84
2023/01/04 11:10:12;;;;;;;18.98;9.88;;;;;;;16.24;81.18;95676.41;4999375;28;20030;-83
2023/01/04 11:12:38;;;;;;;23.23;11.27;;;;;;;16.19;82.23;95674.59;4999496;28;20026;-84
2023/01/04 11:15:09;;;;;;;22.55;10.80;;;;;;;16.43;82.62;95671.31;4984676;28;20088;-84
2023/01/04 11:17:35;;;;;;;23.80;11.95;;;;;;;15.60;85.52;95676.06;4999293;28;20034;-84
2023/01/04 11:20:00;;;;;;;19.00;11.00;;;;;;;15.86;89.74;95674.13;4983617;28;20088;-84
2023/01/04 11:22:43;;;;;;;25.85;10.75;;;;;;;16.33;83.62;95660.78;4999316;28;20034;-83
2023/01/04 11:25:15;;;;;;;19.90;10.88;;;;;;;16.52;83.84;95661.75;4999413;28;20136;-83
2023/01/04 11:27:47;;;;;;;24.05;11.68;;;;;;;16.35;85.54;95656.00;4982900;28;20030;-84
2023/01/04 11:30:24;;;;;;;27.85;12.32;;;;;;;15.51;88.49;95659.97;4999263;28;20030;-84
2023/01/04 11:33:12;;;;;;;23.30;12.20;;;;;;;15.68;94.99;95651.72;4983207;28;20037;-84
2023/01/04 11:35:41;;;;;;;21.00;11.60;;;;;;;16.15;89.53;95643.69;5009238;28;20029;-84
2023/01/04 11:38:18;;;;;;;23.20;10.90;;;;;;;16.57;87.78;95633.69;5022425;28;20036;-84
2023/01/04 11:40:57;;;;;;;24.17;11.35;;;;;;;16.65;86.26;95628.59;5033438;28;20033;-84
2023/01/04 11:43:24;;;;;;;19.63;10.27;;;;;;;16.50;85.98;95626.84;5019201;28;20033;-84
2023/01/04 11:45:52;;;;;;;23.25;10.75;;;;;;;16.82;86.59;95627.44;4999027;28;20034;-84
2023/01/04 11:48:18;;;;;;;22.45;10.77;;;;;;;16.76;84.35;95624.03;5016467;28;20414;-84
2023/01/04 11:50:46;;;;;;;23.33;11.00;;;;;;;16.78;83.43;95621.13;4999119;28;20029;-84
2023/01/04 11:53:35;;;;;;;27.85;10.93;;;;;;;16.64;83.87;95615.63;4999120;28;20030;-84
2023/01/04 11:56:08;;;;;;;22.90;10.98;;;;;;;17.04;81.31;95607.72;4999134;28;20053;-84
2023/01/04 11:58:34;;;;;;;24.15;11.48;;;;;;;16.75;83.65;95598.63;5018548;28;20433;-84
2023/01/04 12:00:59;;;;;;;25.48;11.10;;;;;;;16.95;82.13;95599.56;5002533;28;20129;-84
2023/01/04 12:03:26;;;;;;;20.58;11.43;;;;;;;16.74;83.68;95597.03;5018629;28;20060;-84
2023/01/04 12:05:51;;;;;;;23.33;11.00;;;;;;;16.87;83.72;95594.84;5002622;28;20029;-84
2023/01/04 12:08:33;;;;;;;22.17;11.50;;;;;;;17.01;83.86;95579.94;5002437;28;20320;-84